Accueil
METAR-TAF:

METAR-TAF

Aéroports :

Aéroport de Lorient-Bretagne-Sud - BAN Lann-Bihoué

Lorient, France

latitude: 47-46N, longitude: 003-27W, altitude: 52 m

Observation

Le bulletin a été fait il y a 33 minutes, à 23:30 UTC
Vent 7 kt de est/nord-est
Température 16°C
Humidité 68%
Pression 1023 hPa
Visibilité 10 km ou plus
pas de nuages en-dessous de 1500 mètres et pas de cumulonimbus.

METAR: LFRH 242330Z AUTO 06007KT CAVOK 16/10 Q1023 NOSIG

Heure: 02:03 (00:03 UTC)

Prévision

Le bulletin a été fait il y a 1 heure et 3 minutes, à 23:00 UTC
Prévision valable du 25 à 00 UTC au 25 à 24 UTC
Vent 10 kt de nord-est
Visibilité 10 km ou plus
pas de nuages en-dessous de 1500 mètres et pas de cumulonimbus.
Temporairement
du 25 à 12 UTC au 25 à 18 UTC
Vent 10 kt de nord/nord-est avec des rafales jusqu'à 20 kt

TAF: LFRH 242300Z 2500/2524 05010KT CAVOK TEMPO 2512/2518 03010G20KT

Observations et prévisions météorologiques de plus de 4000 aéroports (messages METAR et TAF).

Les stations disponibles sont représentées par des disques jaunes et rouges sur la carte.

Passer la souris dessus pour voir le nom de la station.

Cliquer dessus pour voir les observations et prévisions météorologiques.

Pour changer de carte: cliquez sur les boutons verts avec une croix noire pour zoomer, sur le bouton vert avec un tiret pour effectuer un zoom arrière, ou sur les flèches vertes pour les cartes adjacentes.


METAR-TAF: